Terminal Aerodrome Forecast
Issued by NWS

Home | Current Version | Previous Version | Graphics & Text | Print | Product List | Glossary On
Versions: 1 2 3 4 5 6 7 8 9 10 11 12 13 14 15 16
000
FTUS43 KFGF 262338
TAFBJI
TAF
KBJI 262338Z 2700/2724 08003KT P6SM BKN110
     FM270800 00000KT 1 1/2SM BR BKN010
     FM271100 00000KT 1/2SM FG SCT008
     FM271800 05004KT P6SM FEW150=

USA.gov is the U.S. government's official web portal to all federal, state and local government web resources and services.